sensor_id;sensor_type;location;lat;lon;timestamp;temperature;humidity
8152;DHT22;4117;53.622;9.958;2022-08-19T00:02:00;19.60;6.80
8152;DHT22;4117;53.622;9.958;2022-08-19T00:04:31;19.60;6.10
8152;DHT22;4117;53.622;9.958;2022-08-19T00:07:00;19.60;6.40
8152;DHT22;4117;53.622;9.958;2022-08-19T00:09:28;19.60;6.70
8152;DHT22;4117;53.622;9.958;2022-08-19T00:11:56;19.70;6.20
8152;DHT22;4117;53.622;9.958;2022-08-19T00:14:25;19.70;6.00
8152;DHT22;4117;53.622;9.958;2022-08-19T00:16:53;19.60;6.10
8152;DHT22;4117;53.622;9.958;2022-08-19T00:19:20;19.60;8.10
8152;DHT22;4117;53.622;9.958;2022-08-19T00:21:49;19.60;7.70
8152;DHT22;4117;53.622;9.958;2022-08-19T00:24:16;19.60;7.70
8152;DHT22;4117;53.622;9.958;2022-08-19T00:26:44;19.60;8.00
8152;DHT22;4117;53.622;9.958;2022-08-19T00:29:13;19.60;10.80
8152;DHT22;4117;53.622;9.958;2022-08-19T00:31:41;19.60;9.80
8152;DHT22;4117;53.622;9.958;2022-08-19T00:34:08;19.60;9.60
8152;DHT22;4117;53.622;9.958;2022-08-19T00:36:35;19.60;9.10
8152;DHT22;4117;53.622;9.958;2022-08-19T00:39:04;19.50;11.10
8152;DHT22;4117;53.622;9.958;2022-08-19T00:41:31;19.60;10.60
8152;DHT22;4117;53.622;9.958;2022-08-19T00:44:00;19.60;10.40
8152;DHT22;4117;53.622;9.958;2022-08-19T00:46:28;19.60;10.10
8152;DHT22;4117;53.622;9.958;2022-08-19T00:48:56;19.60;10.40
8152;DHT22;4117;53.622;9.958;2022-08-19T00:51:24;19.60;10.70
8152;DHT22;4117;53.622;9.958;2022-08-19T00:53:52;19.50;9.60
8152;DHT22;4117;53.622;9.958;2022-08-19T00:56:21;19.50;10.80
8152;DHT22;4117;53.622;9.958;2022-08-19T00:58:47;19.50;11.20
8152;DHT22;4117;53.622;9.958;2022-08-19T01:01:14;19.60;9.70
8152;DHT22;4117;53.622;9.958;2022-08-19T01:03:41;19.50;11.30
8152;DHT22;4117;53.622;9.958;2022-08-19T01:06:08;19.50;11.50
8152;DHT22;4117;53.622;9.958;2022-08-19T01:08:35;19.40;11.40
8152;DHT22;4117;53.622;9.958;2022-08-19T01:11:02;19.50;11.50
8152;DHT22;4117;53.622;9.958;2022-08-19T01:13:33;19.50;11.50
8152;DHT22;4117;53.622;9.958;2022-08-19T01:16:04;19.50;11.50
8152;DHT22;4117;53.622;9.958;2022-08-19T01:18:32;19.50;11.50
8152;DHT22;4117;53.622;9.958;2022-08-19T01:21:05;19.40;11.40
8152;DHT22;4117;53.622;9.958;2022-08-19T01:23:35;19.40;11.40
8152;DHT22;4117;53.622;9.958;2022-08-19T01:26:16;19.40;11.40
8152;DHT22;4117;53.622;9.958;2022-08-19T01:28:44;19.50;11.50
8152;DHT22;4117;53.622;9.958;2022-08-19T01:31:14;19.40;12.80
8152;DHT22;4117;53.622;9.958;2022-08-19T01:33:41;19.40;14.00
8152;DHT22;4117;53.622;9.958;2022-08-19T01:36:14;19.40;15.30
8152;DHT22;4117;53.622;9.958;2022-08-19T01:38:43;19.40;16.70
8152;DHT22;4117;53.622;9.958;2022-08-19T01:41:12;19.40;16.20
8152;DHT22;4117;53.622;9.958;2022-08-19T01:43:39;19.40;16.80
8152;DHT22;4117;53.622;9.958;2022-08-19T01:46:06;19.40;16.80
8152;DHT22;4117;53.622;9.958;2022-08-19T01:48:34;19.40;16.90
8152;DHT22;4117;53.622;9.958;2022-08-19T01:51:02;19.40;16.40
8152;DHT22;4117;53.622;9.958;2022-08-19T01:53:29;19.30;19.80
8152;DHT22;4117;53.622;9.958;2022-08-19T01:55:58;19.30;21.60
8152;DHT22;4117;53.622;9.958;2022-08-19T01:58:32;19.30;22.10
8152;DHT22;4117;53.622;9.958;2022-08-19T02:01:02;19.30;22.10
8152;DHT22;4117;53.622;9.958;2022-08-19T02:03:28;19.30;22.10
8152;DHT22;4117;53.622;9.958;2022-08-19T02:05:57;19.30;22.10
8152;DHT22;4117;53.622;9.958;2022-08-19T02:08:25;19.30;22.10
8152;DHT22;4117;53.622;9.958;2022-08-19T02:10:52;19.30;22.10
8152;DHT22;4117;53.622;9.958;2022-08-19T02:13:21;19.30;22.10
8152;DHT22;4117;53.622;9.958;2022-08-19T02:15:48;19.30;22.10
8152;DHT22;4117;53.622;9.958;2022-08-19T02:18:15;19.20;24.60
8152;DHT22;4117;53.622;9.958;2022-08-19T02:20:42;19.20;22.40
8152;DHT22;4117;53.622;9.958;2022-08-19T02:23:11;19.20;23.80
8152;DHT22;4117;53.622;9.958;2022-08-19T02:25:38;19.20;23.90
8152;DHT22;4117;53.622;9.958;2022-08-19T02:28:06;19.20;24.40
8152;DHT22;4117;53.622;9.958;2022-08-19T02:30:34;19.20;25.00
8152;DHT22;4117;53.622;9.958;2022-08-19T02:33:01;19.20;25.50
8152;DHT22;4117;53.622;9.958;2022-08-19T02:35:28;19.20;27.00
8152;DHT22;4117;53.622;9.958;2022-08-19T02:37:54;19.10;30.50
8152;DHT22;4117;53.622;9.958;2022-08-19T02:40:39;19.10;32.80
8152;DHT22;4117;53.622;9.958;2022-08-19T02:43:08;19.00;37.70
8152;DHT22;4117;53.622;9.958;2022-08-19T02:45:38;19.00;38.70
8152;DHT22;4117;53.622;9.958;2022-08-19T02:48:05;19.00;39.20
8152;DHT22;4117;53.622;9.958;2022-08-19T02:50:33;19.10;37.00
8152;DHT22;4117;53.622;9.958;2022-08-19T02:52:59;19.10;36.90
8152;DHT22;4117;53.622;9.958;2022-08-19T02:55:26;19.10;38.70
8152;DHT22;4117;53.622;9.958;2022-08-19T02:57:53;19.10;37.30
8152;DHT22;4117;53.622;9.958;2022-08-19T03:00:20;19.10;35.60
8152;DHT22;4117;53.622;9.958;2022-08-19T03:02:48;19.10;34.70
8152;DHT22;4117;53.622;9.958;2022-08-19T03:05:15;19.10;33.60
8152;DHT22;4117;53.622;9.958;2022-08-19T03:07:42;19.10;35.10
8152;DHT22;4117;53.622;9.958;2022-08-19T03:10:09;19.10;35.40
8152;DHT22;4117;53.622;9.958;2022-08-19T03:12:39;19.10;34.80
8152;DHT22;4117;53.622;9.958;2022-08-19T03:15:08;19.10;34.60
8152;DHT22;4117;53.622;9.958;2022-08-19T03:17:35;19.10;35.60
8152;DHT22;4117;53.622;9.958;2022-08-19T03:20:04;19.10;35.70
8152;DHT22;4117;53.622;9.958;2022-08-19T03:22:31;19.00;37.60
8152;DHT22;4117;53.622;9.958;2022-08-19T03:24:58;19.00;37.70
8152;DHT22;4117;53.622;9.958;2022-08-19T03:27:25;19.10;34.40
8152;DHT22;4117;53.622;9.958;2022-08-19T03:29:52;19.10;35.50
8152;DHT22;4117;53.622;9.958;2022-08-19T03:32:19;19.10;36.20
8152;DHT22;4117;53.622;9.958;2022-08-19T03:34:47;19.00;36.20
8152;DHT22;4117;53.622;9.958;2022-08-19T03:37:16;19.00;38.70
8152;DHT22;4117;53.622;9.958;2022-08-19T03:39:43;19.00;38.00
8152;DHT22;4117;53.622;9.958;2022-08-19T03:42:10;19.00;38.30
8152;DHT22;4117;53.622;9.958;2022-08-19T03:44:37;19.00;38.00
8152;DHT22;4117;53.622;9.958;2022-08-19T03:47:04;18.90;38.00
8152;DHT22;4117;53.622;9.958;2022-08-19T03:49:32;19.00;37.70
8152;DHT22;4117;53.622;9.958;2022-08-19T03:52:00;19.00;36.90
8152;DHT22;4117;53.622;9.958;2022-08-19T03:54:29;19.00;37.60
8152;DHT22;4117;53.622;9.958;2022-08-19T03:56:57;18.90;37.80
8152;DHT22;4117;53.622;9.958;2022-08-19T03:59:26;18.90;39.00
8152;DHT22;4117;53.622;9.958;2022-08-19T04:01:55;19.00;37.90
8152;DHT22;4117;53.622;9.958;2022-08-19T04:04:23;19.00;37.30
8152;DHT22;4117;53.622;9.958;2022-08-19T04:06:50;18.90;37.60
8152;DHT22;4117;53.622;9.958;2022-08-19T04:09:19;18.90;39.70
8152;DHT22;4117;53.622;9.958;2022-08-19T04:11:51;18.90;39.90
8152;DHT22;4117;53.622;9.958;2022-08-19T04:14:21;18.90;39.50
8152;DHT22;4117;53.622;9.958;2022-08-19T04:16:49;18.90;40.90
8152;DHT22;4117;53.622;9.958;2022-08-19T04:19:17;18.90;41.30
8152;DHT22;4117;53.622;9.958;2022-08-19T04:21:48;18.90;38.80
8152;DHT22;4117;53.622;9.958;2022-08-19T04:24:15;18.90;40.20
8152;DHT22;4117;53.622;9.958;2022-08-19T04:26:43;18.90;37.90
8152;DHT22;4117;53.622;9.958;2022-08-19T04:29:15;18.90;38.90
8152;DHT22;4117;53.622;9.958;2022-08-19T04:31:44;18.90;37.80
8152;DHT22;4117;53.622;9.958;2022-08-19T04:34:13;18.90;39.90
8152;DHT22;4117;53.622;9.958;2022-08-19T04:36:41;18.90;38.90
8152;DHT22;4117;53.622;9.958;2022-08-19T04:39:11;18.90;40.20
8152;DHT22;4117;53.622;9.958;2022-08-19T04:41:39;18.80;41.20
8152;DHT22;4117;53.622;9.958;2022-08-19T04:44:25;18.80;42.10
8152;DHT22;4117;53.622;9.958;2022-08-19T04:46:52;18.80;45.40
8152;DHT22;4117;53.622;9.958;2022-08-19T04:49:21;18.80;45.40
8152;DHT22;4117;53.622;9.958;2022-08-19T04:51:49;18.90;43.70
8152;DHT22;4117;53.622;9.958;2022-08-19T04:54:17;18.80;45.40
8152;DHT22;4117;53.622;9.958;2022-08-19T04:56:45;18.80;45.40
8152;DHT22;4117;53.622;9.958;2022-08-19T04:59:15;18.80;45.40
8152;DHT22;4117;53.622;9.958;2022-08-19T05:01:43;18.80;45.40
8152;DHT22;4117;53.622;9.958;2022-08-19T05:04:16;18.80;45.40
8152;DHT22;4117;53.622;9.958;2022-08-19T05:06:44;18.80;45.70
8152;DHT22;4117;53.622;9.958;2022-08-19T05:09:12;18.80;45.40
8152;DHT22;4117;53.622;9.958;2022-08-19T05:11:41;18.80;45.40
8152;DHT22;4117;53.622;9.958;2022-08-19T05:14:09;18.80;45.40
8152;DHT22;4117;53.622;9.958;2022-08-19T05:16:38;18.80;46.20
8152;DHT22;4117;53.622;9.958;2022-08-19T05:19:06;18.80;45.50
8152;DHT22;4117;53.622;9.958;2022-08-19T05:21:56;18.80;46.40
8152;DHT22;4117;53.622;9.958;2022-08-19T05:24:40;18.80;45.50
8152;DHT22;4117;53.622;9.958;2022-08-19T05:27:07;18.70;49.70
8152;DHT22;4117;53.622;9.958;2022-08-19T05:29:34;18.80;49.90
8152;DHT22;4117;53.622;9.958;2022-08-19T05:32:02;18.80;46.70
8152;DHT22;4117;53.622;9.958;2022-08-19T05:34:32;18.80;49.00
8152;DHT22;4117;53.622;9.958;2022-08-19T05:37:00;18.80;47.00
8152;DHT22;4117;53.622;9.958;2022-08-19T05:39:32;18.70;51.90
8152;DHT22;4117;53.622;9.958;2022-08-19T05:42:01;18.70;54.70
8152;DHT22;4117;53.622;9.958;2022-08-19T05:44:31;18.70;54.80
8152;DHT22;4117;53.622;9.958;2022-08-19T05:46:59;18.70;55.10
8152;DHT22;4117;53.622;9.958;2022-08-19T05:49:28;18.70;54.30
8152;DHT22;4117;53.622;9.958;2022-08-19T05:51:56;18.70;55.90
8152;DHT22;4117;53.622;9.958;2022-08-19T05:54:24;18.70;54.00
8152;DHT22;4117;53.622;9.958;2022-08-19T05:56:53;18.70;54.80
8152;DHT22;4117;53.622;9.958;2022-08-19T05:59:21;18.70;57.50
8152;DHT22;4117;53.622;9.958;2022-08-19T06:01:50;18.70;57.50
8152;DHT22;4117;53.622;9.958;2022-08-19T06:04:19;18.70;54.60
8152;DHT22;4117;53.622;9.958;2022-08-19T06:06:46;18.70;56.30
8152;DHT22;4117;53.622;9.958;2022-08-19T06:09:15;18.70;53.10
8152;DHT22;4117;53.622;9.958;2022-08-19T06:11:44;18.70;53.50
8152;DHT22;4117;53.622;9.958;2022-08-19T06:14:14;18.70;54.50
8152;DHT22;4117;53.622;9.958;2022-08-19T06:16:42;18.70;55.50
8152;DHT22;4117;53.622;9.958;2022-08-19T06:19:13;18.70;56.10
8152;DHT22;4117;53.622;9.958;2022-08-19T06:21:43;18.70;56.80
8152;DHT22;4117;53.622;9.958;2022-08-19T06:24:13;18.80;53.90
8152;DHT22;4117;53.622;9.958;2022-08-19T06:26:45;18.80;52.50
8152;DHT22;4117;53.622;9.958;2022-08-19T06:29:13;18.80;52.90
8152;DHT22;4117;53.622;9.958;2022-08-19T06:31:42;18.80;52.20
8152;DHT22;4117;53.622;9.958;2022-08-19T06:34:09;18.90;52.20
8152;DHT22;4117;53.622;9.958;2022-08-19T06:36:40;18.80;51.60
8152;DHT22;4117;53.622;9.958;2022-08-19T06:39:09;18.80;51.60
8152;DHT22;4117;53.622;9.958;2022-08-19T06:41:38;18.80;54.40
8152;DHT22;4117;53.622;9.958;2022-08-19T06:44:07;18.80;54.70
8152;DHT22;4117;53.622;9.958;2022-08-19T06:46:35;18.80;53.70
8152;DHT22;4117;53.622;9.958;2022-08-19T06:49:03;18.80;52.60
8152;DHT22;4117;53.622;9.958;2022-08-19T06:51:30;18.80;55.20
8152;DHT22;4117;53.622;9.958;2022-08-19T06:54:00;18.80;54.90
8152;DHT22;4117;53.622;9.958;2022-08-19T06:56:29;18.80;53.10
8152;DHT22;4117;53.622;9.958;2022-08-19T06:58:57;18.80;53.10
8152;DHT22;4117;53.622;9.958;2022-08-19T07:01:25;18.80;52.60
8152;DHT22;4117;53.622;9.958;2022-08-19T07:03:53;18.80;53.40
8152;DHT22;4117;53.622;9.958;2022-08-19T07:06:20;18.80;54.10
8152;DHT22;4117;53.622;9.958;2022-08-19T07:08:48;18.90;51.80
8152;DHT22;4117;53.622;9.958;2022-08-19T07:11:17;18.90;50.60
8152;DHT22;4117;53.622;9.958;2022-08-19T07:13:45;18.90;50.40
8152;DHT22;4117;53.622;9.958;2022-08-19T07:16:16;18.90;49.40
8152;DHT22;4117;53.622;9.958;2022-08-19T07:18:46;18.90;52.70
8152;DHT22;4117;53.622;9.958;2022-08-19T07:21:15;18.90;52.40
8152;DHT22;4117;53.622;9.958;2022-08-19T07:23:44;18.90;52.20
8152;DHT22;4117;53.622;9.958;2022-08-19T07:26:13;18.90;52.20
8152;DHT22;4117;53.622;9.958;2022-08-19T07:28:40;18.90;51.90
8152;DHT22;4117;53.622;9.958;2022-08-19T07:31:10;18.90;53.00
8152;DHT22;4117;53.622;9.958;2022-08-19T07:33:38;18.90;52.80
8152;DHT22;4117;53.622;9.958;2022-08-19T07:36:08;18.90;51.10
8152;DHT22;4117;53.622;9.958;2022-08-19T07:38:37;19.00;50.20
8152;DHT22;4117;53.622;9.958;2022-08-19T07:41:05;19.00;49.70
8152;DHT22;4117;53.622;9.958;2022-08-19T07:43:32;19.00;48.60
8152;DHT22;4117;53.622;9.958;2022-08-19T07:45:59;19.00;51.10
8152;DHT22;4117;53.622;9.958;2022-08-19T07:48:27;19.00;49.80
8152;DHT22;4117;53.622;9.958;2022-08-19T07:50:56;19.00;51.10
8152;DHT22;4117;53.622;9.958;2022-08-19T07:53:26;19.00;51.00
8152;DHT22;4117;53.622;9.958;2022-08-19T07:55:53;19.00;49.80
8152;DHT22;4117;53.622;9.958;2022-08-19T07:58:22;19.00;49.80
8152;DHT22;4117;53.622;9.958;2022-08-19T08:00:50;19.00;52.00
8152;DHT22;4117;53.622;9.958;2022-08-19T08:03:20;19.10;50.10
8152;DHT22;4117;53.622;9.958;2022-08-19T08:06:07;19.00;50.20
8152;DHT22;4117;53.622;9.958;2022-08-19T08:08:52;19.10;50.60
8152;DHT22;4117;53.622;9.958;2022-08-19T08:11:43;19.10;50.60
8152;DHT22;4117;53.622;9.958;2022-08-19T08:14:16;19.10;50.00
8152;DHT22;4117;53.622;9.958;2022-08-19T08:16:43;19.10;49.60
8152;DHT22;4117;53.622;9.958;2022-08-19T08:19:11;19.10;50.10
8152;DHT22;4117;53.622;9.958;2022-08-19T08:21:40;19.10;50.10
8152;DHT22;4117;53.622;9.958;2022-08-19T08:24:10;19.10;48.60
8152;DHT22;4117;53.622;9.958;2022-08-19T08:26:37;19.10;50.90
8152;DHT22;4117;53.622;9.958;2022-08-19T08:29:04;19.10;50.80
8152;DHT22;4117;53.622;9.958;2022-08-19T08:31:33;19.10;50.50
8152;DHT22;4117;53.622;9.958;2022-08-19T08:34:00;19.10;47.20
8152;DHT22;4117;53.622;9.958;2022-08-19T08:36:27;19.10;49.30
8152;DHT22;4117;53.622;9.958;2022-08-19T08:38:54;19.10;47.90
8152;DHT22;4117;53.622;9.958;2022-08-19T08:41:30;19.20;47.80
8152;DHT22;4117;53.622;9.958;2022-08-19T08:43:59;19.20;45.70
8152;DHT22;4117;53.622;9.958;2022-08-19T08:46:34;19.10;45.60
8152;DHT22;4117;53.622;9.958;2022-08-19T08:49:06;19.10;45.10
8152;DHT22;4117;53.622;9.958;2022-08-19T08:51:43;19.10;45.60
8152;DHT22;4117;53.622;9.958;2022-08-19T08:54:13;19.10;45.60
8152;DHT22;4117;53.622;9.958;2022-08-19T08:56:43;19.10;45.60
8152;DHT22;4117;53.622;9.958;2022-08-19T08:59:19;19.10;45.60
8152;DHT22;4117;53.622;9.958;2022-08-19T09:01:47;19.20;45.70
8152;DHT22;4117;53.622;9.958;2022-08-19T09:04:14;19.20;45.70
8152;DHT22;4117;53.622;9.958;2022-08-19T09:06:49;19.20;45.10
8152;DHT22;4117;53.622;9.958;2022-08-19T09:09:22;19.20;45.70
8152;DHT22;4117;53.622;9.958;2022-08-19T09:12:01;19.20;45.70
8152;DHT22;4117;53.622;9.958;2022-08-19T09:14:36;19.30;45.80
8152;DHT22;4117;53.622;9.958;2022-08-19T09:17:07;19.20;43.60
8152;DHT22;4117;53.622;9.958;2022-08-19T09:19:35;19.20;45.30
8152;DHT22;4117;53.622;9.958;2022-08-19T09:22:02;19.30;45.80
8152;DHT22;4117;53.622;9.958;2022-08-19T09:24:30;19.30;45.80
8152;DHT22;4117;53.622;9.958;2022-08-19T09:26:59;19.20;45.50
8152;DHT22;4117;53.622;9.958;2022-08-19T09:29:26;19.30;43.10
8152;DHT22;4117;53.622;9.958;2022-08-19T09:31:54;19.30;45.70
8152;DHT22;4117;53.622;9.958;2022-08-19T09:34:21;19.20;45.70
8152;DHT22;4117;53.622;9.958;2022-08-19T09:36:48;19.20;43.50
8152;DHT22;4117;53.622;9.958;2022-08-19T09:39:18;19.20;43.50
8152;DHT22;4117;53.622;9.958;2022-08-19T09:41:45;19.30;45.70
8152;DHT22;4117;53.622;9.958;2022-08-19T09:44:13;19.30;45.60
8152;DHT22;4117;53.622;9.958;2022-08-19T09:46:40;19.20;45.60
8152;DHT22;4117;53.622;9.958;2022-08-19T09:49:07;19.20;45.80
8152;DHT22;4117;53.622;9.958;2022-08-19T09:51:34;19.20;45.70
8152;DHT22;4117;53.622;9.958;2022-08-19T09:54:02;19.30;45.80
8152;DHT22;4117;53.622;9.958;2022-08-19T09:56:30;19.20;45.70
8152;DHT22;4117;53.622;9.958;2022-08-19T09:58:58;19.30;45.80
8152;DHT22;4117;53.622;9.958;2022-08-19T10:01:29;19.30;45.80
8152;DHT22;4117;53.622;9.958;2022-08-19T10:03:57;19.40;45.90
8152;DHT22;4117;53.622;9.958;2022-08-19T10:06:26;19.40;45.90
8152;DHT22;4117;53.622;9.958;2022-08-19T10:08:55;19.40;45.90
8152;DHT22;4117;53.622;9.958;2022-08-19T10:11:22;19.40;45.90
8152;DHT22;4117;53.622;9.958;2022-08-19T10:13:50;19.50;46.00
8152;DHT22;4117;53.622;9.958;2022-08-19T10:16:19;19.40;45.90
8152;DHT22;4117;53.622;9.958;2022-08-19T10:18:49;19.40;45.90
8152;DHT22;4117;53.622;9.958;2022-08-19T10:21:18;19.50;47.10
8152;DHT22;4117;53.622;9.958;2022-08-19T10:23:48;19.50;47.50
8152;DHT22;4117;53.622;9.958;2022-08-19T10:26:18;19.40;45.90
8152;DHT22;4117;53.622;9.958;2022-08-19T10:28:45;19.40;45.90
8152;DHT22;4117;53.622;9.958;2022-08-19T10:31:15;19.50;46.00
8152;DHT22;4117;53.622;9.958;2022-08-19T10:33:43;19.50;48.30
8152;DHT22;4117;53.622;9.958;2022-08-19T10:36:13;19.40;47.40
8152;DHT22;4117;53.622;9.958;2022-08-19T10:38:43;19.50;45.90
8152;DHT22;4117;53.622;9.958;2022-08-19T10:44:38;19.50;48.40
8152;DHT22;4117;53.622;9.958;2022-08-19T10:47:06;19.50;45.90
8152;DHT22;4117;53.622;9.958;2022-08-19T10:49:32;19.50;47.50
8152;DHT22;4117;53.622;9.958;2022-08-19T10:52:20;19.60;46.30
8152;DHT22;4117;53.622;9.958;2022-08-19T10:55:01;19.60;46.70
8152;DHT22;4117;53.622;9.958;2022-08-19T10:57:45;19.50;46.00
8152;DHT22;4117;53.622;9.958;2022-08-19T11:00:14;19.60;49.30
8152;DHT22;4117;53.622;9.958;2022-08-19T11:02:41;19.60;46.80
8152;DHT22;4117;53.622;9.958;2022-08-19T11:05:09;19.60;46.00
8152;DHT22;4117;53.622;9.958;2022-08-19T11:07:37;19.60;46.10
8152;DHT22;4117;53.622;9.958;2022-08-19T11:10:05;19.70;46.10
8152;DHT22;4117;53.622;9.958;2022-08-19T11:12:32;19.80;46.20
8152;DHT22;4117;53.622;9.958;2022-08-19T11:14:59;19.90;46.30
8152;DHT22;4117;53.622;9.958;2022-08-19T11:17:28;20.00;46.40
8152;DHT22;4117;53.622;9.958;2022-08-19T11:19:57;20.00;46.40
8152;DHT22;4117;53.622;9.958;2022-08-19T11:22:25;20.10;46.50
8152;DHT22;4117;53.622;9.958;2022-08-19T11:24:52;20.20;46.40
8152;DHT22;4117;53.622;9.958;2022-08-19T11:27:19;20.20;45.80
8152;DHT22;4117;53.622;9.958;2022-08-19T11:29:45;20.20;41.20
8152;DHT22;4117;53.622;9.958;2022-08-19T11:32:12;20.20;41.10
8152;DHT22;4117;53.622;9.958;2022-08-19T11:34:42;20.30;39.80
8152;DHT22;4117;53.622;9.958;2022-08-19T11:37:09;20.30;39.00
8152;DHT22;4117;53.622;9.958;2022-08-19T11:39:36;20.30;33.90
8152;DHT22;4117;53.622;9.958;2022-08-19T11:42:05;20.30;36.80
8152;DHT22;4117;53.622;9.958;2022-08-19T11:44:52;20.20;37.70
8152;DHT22;4117;53.622;9.958;2022-08-19T11:47:20;20.30;33.90
8152;DHT22;4117;53.622;9.958;2022-08-19T11:49:49;20.30;34.10
8152;DHT22;4117;53.622;9.958;2022-08-19T11:52:17;20.40;39.40
8152;DHT22;4117;53.622;9.958;2022-08-19T11:54:44;20.40;33.90
8152;DHT22;4117;53.622;9.958;2022-08-19T11:57:10;20.40;34.60
8152;DHT22;4117;53.622;9.958;2022-08-19T11:59:37;20.50;34.00
8152;DHT22;4117;53.622;9.958;2022-08-19T12:02:04;20.50;29.60
8152;DHT22;4117;53.622;9.958;2022-08-19T12:04:31;20.40;30.00
8152;DHT22;4117;53.622;9.958;2022-08-19T12:06:59;20.40;29.80
8152;DHT22;4117;53.622;9.958;2022-08-19T12:09:27;20.40;30.50
8152;DHT22;4117;53.622;9.958;2022-08-19T12:11:54;20.50;29.60
8152;DHT22;4117;53.622;9.958;2022-08-19T12:14:20;20.40;29.20
8152;DHT22;4117;53.622;9.958;2022-08-19T12:16:48;20.40;28.30
8152;DHT22;4117;53.622;9.958;2022-08-19T12:19:15;20.50;30.90
8152;DHT22;4117;53.622;9.958;2022-08-19T12:21:42;20.50;29.10
8152;DHT22;4117;53.622;9.958;2022-08-19T12:24:10;20.60;30.00
8152;DHT22;4117;53.622;9.958;2022-08-19T12:26:37;20.60;28.10
8152;DHT22;4117;53.622;9.958;2022-08-19T12:29:04;20.70;27.60
8152;DHT22;4117;53.622;9.958;2022-08-19T12:31:32;20.80;28.30
8152;DHT22;4117;53.622;9.958;2022-08-19T12:33:59;21.00;28.40
8152;DHT22;4117;53.622;9.958;2022-08-19T12:36:26;21.10;23.80
8152;DHT22;4117;53.622;9.958;2022-08-19T12:38:53;21.20;23.50
8152;DHT22;4117;53.622;9.958;2022-08-19T12:41:21;21.30;23.40
8152;DHT22;4117;53.622;9.958;2022-08-19T12:43:49;21.30;23.40
8152;DHT22;4117;53.622;9.958;2022-08-19T12:46:17;21.40;23.40
8152;DHT22;4117;53.622;9.958;2022-08-19T12:48:44;21.40;23.50
8152;DHT22;4117;53.622;9.958;2022-08-19T12:51:13;21.50;20.00
8152;DHT22;4117;53.622;9.958;2022-08-19T12:53:41;21.40;17.30
8152;DHT22;4117;53.622;9.958;2022-08-19T12:56:09;21.40;18.80
8152;DHT22;4117;53.622;9.958;2022-08-19T12:58:39;21.50;18.30
8152;DHT22;4117;53.622;9.958;2022-08-19T13:01:08;21.50;18.30
8152;DHT22;4117;53.622;9.958;2022-08-19T13:03:35;21.50;18.00
8152;DHT22;4117;53.622;9.958;2022-08-19T13:06:03;21.50;16.20
8152;DHT22;4117;53.622;9.958;2022-08-19T13:08:30;21.50;17.40
8152;DHT22;4117;53.622;9.958;2022-08-19T13:10:57;21.50;18.70
8152;DHT22;4117;53.622;9.958;2022-08-19T13:13:25;21.50;15.80
8152;DHT22;4117;53.622;9.958;2022-08-19T13:16:00;21.60;17.80
8152;DHT22;4117;53.622;9.958;2022-08-19T13:18:28;21.60;17.30
8152;DHT22;4117;53.622;9.958;2022-08-19T13:20:55;21.70;13.10
8152;DHT22;4117;53.622;9.958;2022-08-19T13:23:22;21.70;12.90
8152;DHT22;4117;53.622;9.958;2022-08-19T13:25:56;21.70;15.30
8152;DHT22;4117;53.622;9.958;2022-08-19T13:28:23;21.80;13.00
8152;DHT22;4117;53.622;9.958;2022-08-19T13:30:50;21.80;11.50
8152;DHT22;4117;53.622;9.958;2022-08-19T13:33:35;21.80;13.00
8152;DHT22;4117;53.622;9.958;2022-08-19T13:36:03;21.80;10.00
8152;DHT22;4117;53.622;9.958;2022-08-19T13:38:33;21.70;10.30
8152;DHT22;4117;53.622;9.958;2022-08-19T13:41:05;21.70;11.50
8152;DHT22;4117;53.622;9.958;2022-08-19T13:43:32;21.70;8.40
8152;DHT22;4117;53.622;9.958;2022-08-19T13:46:00;21.70;10.60
8152;DHT22;4117;53.622;9.958;2022-08-19T13:48:37;21.80;10.30
8152;DHT22;4117;53.622;9.958;2022-08-19T13:51:05;21.80;10.00
8152;DHT22;4117;53.622;9.958;2022-08-19T13:53:35;21.70;8.90
8152;DHT22;4117;53.622;9.958;2022-08-19T13:56:05;21.80;9.40
8152;DHT22;4117;53.622;9.958;2022-08-19T13:58:32;21.80;7.90
8152;DHT22;4117;53.622;9.958;2022-08-19T14:00:59;21.80;7.60
8152;DHT22;4117;53.622;9.958;2022-08-19T14:03:26;21.80;7.20
8152;DHT22;4117;53.622;9.958;2022-08-19T14:05:55;21.70;7.30
8152;DHT22;4117;53.622;9.958;2022-08-19T14:08:23;21.70;7.40
8152;DHT22;4117;53.622;9.958;2022-08-19T14:10:50;21.70;8.40
8152;DHT22;4117;53.622;9.958;2022-08-19T14:13:19;21.80;7.40
8152;DHT22;4117;53.622;9.958;2022-08-19T14:15:46;21.80;7.90
8152;DHT22;4117;53.622;9.958;2022-08-19T14:18:14;21.80;7.70
8152;DHT22;4117;53.622;9.958;2022-08-19T14:20:41;21.80;8.80
8152;DHT22;4117;53.622;9.958;2022-08-19T14:23:10;21.80;6.00
8152;DHT22;4117;53.622;9.958;2022-08-19T14:25:37;21.80;7.40
8152;DHT22;4117;53.622;9.958;2022-08-19T14:28:04;21.80;8.50
8152;DHT22;4117;53.622;9.958;2022-08-19T14:30:34;21.80;8.10
8152;DHT22;4117;53.622;9.958;2022-08-19T14:33:04;21.80;6.00
8152;DHT22;4117;53.622;9.958;2022-08-19T14:35:32;21.80;6.20
8152;DHT22;4117;53.622;9.958;2022-08-19T14:38:00;21.80;1.90
8152;DHT22;4117;53.622;9.958;2022-08-19T14:40:30;21.80;1.80
8152;DHT22;4117;53.622;9.958;2022-08-19T14:42:59;21.80;1.80
8152;DHT22;4117;53.622;9.958;2022-08-19T14:45:30;21.80;2.40
8152;DHT22;4117;53.622;9.958;2022-08-19T14:47:57;21.90;2.30
8152;DHT22;4117;53.622;9.958;2022-08-19T14:50:24;21.90;3.20
8152;DHT22;4117;53.622;9.958;2022-08-19T14:52:58;21.90;2.00
8152;DHT22;4117;53.622;9.958;2022-08-19T14:55:25;21.90;1.80
8152;DHT22;4117;53.622;9.958;2022-08-19T14:57:53;21.90;2.00
8152;DHT22;4117;53.622;9.958;2022-08-19T15:00:20;21.90;1.90
8152;DHT22;4117;53.622;9.958;2022-08-19T15:02:48;21.90;1.80
8152;DHT22;4117;53.622;9.958;2022-08-19T15:05:15;21.90;1.80
8152;DHT22;4117;53.622;9.958;2022-08-19T15:07:43;21.90;2.40
8152;DHT22;4117;53.622;9.958;2022-08-19T15:10:11;21.90;1.80
8152;DHT22;4117;53.622;9.958;2022-08-19T15:12:39;21.90;1.00
8152;DHT22;4117;53.622;9.958;2022-08-19T15:15:13;21.90;1.00
8152;DHT22;4117;53.622;9.958;2022-08-19T15:17:40;21.90;1.00
8152;DHT22;4117;53.622;9.958;2022-08-19T15:20:08;21.90;1.00
8152;DHT22;4117;53.622;9.958;2022-08-19T15:22:35;22.00;1.00
8152;DHT22;4117;53.622;9.958;2022-08-19T15:25:03;22.00;1.00
8152;DHT22;4117;53.622;9.958;2022-08-19T15:27:30;22.00;1.00
8152;DHT22;4117;53.622;9.958;2022-08-19T15:29:57;22.00;1.00
8152;DHT22;4117;53.622;9.958;2022-08-19T15:32:25;22.00;1.00
8152;DHT22;4117;53.622;9.958;2022-08-19T15:34:53;22.00;1.00
8152;DHT22;4117;53.622;9.958;2022-08-19T15:37:20;22.00;1.00
8152;DHT22;4117;53.622;9.958;2022-08-19T15:39:48;22.10;1.00
8152;DHT22;4117;53.622;9.958;2022-08-19T15:42:15;22.10;1.00
8152;DHT22;4117;53.622;9.958;2022-08-19T15:44:42;22.20;1.00
8152;DHT22;4117;53.622;9.958;2022-08-19T15:47:09;22.20;1.00
8152;DHT22;4117;53.622;9.958;2022-08-19T15:49:38;22.30;1.00
8152;DHT22;4117;53.622;9.958;2022-08-19T15:52:05;22.30;1.00
8152;DHT22;4117;53.622;9.958;2022-08-19T15:54:33;22.20;1.00
8152;DHT22;4117;53.622;9.958;2022-08-19T15:57:00;22.20;1.00
8152;DHT22;4117;53.622;9.958;2022-08-19T15:59:44;22.20;1.00
8152;DHT22;4117;53.622;9.958;2022-08-19T16:02:28;22.10;1.00
8152;DHT22;4117;53.622;9.958;2022-08-19T16:05:17;22.20;1.00
8152;DHT22;4117;53.622;9.958;2022-08-19T16:08:03;22.10;1.00
8152;DHT22;4117;53.622;9.958;2022-08-19T16:10:29;22.10;1.00
8152;DHT22;4117;53.622;9.958;2022-08-19T16:12:57;22.10;1.00
8152;DHT22;4117;53.622;9.958;2022-08-19T16:15:25;22.10;1.00
8152;DHT22;4117;53.622;9.958;2022-08-19T16:17:52;22.10;1.00
8152;DHT22;4117;53.622;9.958;2022-08-19T16:20:21;22.20;1.00